KMWA/MWA METAR and TAF weather

Enter ICAO airport designator
Station Type Date Time Source
KMWA METAR 2019/12/08 18:45 UTC NOAA

KMWA 081845Z 20013G23KT 20SM SCT029 BKN250 13/07 A3000


Station Type Date Time Source
KMWA Decoded METAR 2019/12/08 18:45 UTC NOAA

Marion, Williamson County Regional Airport, IL, United States (KMWA) 37-45-01N 089-00-04W
Dec 08, 2019 - 01:45 PM EST / 2019.12.08 1845 UTC
Wind: from the SSW (200 degrees) at 15 MPH (13 KT) gusting to 26 MPH (23 KT):0
Visibility: 20 mile(s):0
Sky conditions: mostly cloudy
Temperature: 55 F (13 C)
Dew Point: 44 F (7 C)
Relative Humidity: 66%
Pressure (altimeter): 30 in. Hg (1015 hPa)
ob: KMWA 081845Z 20013G23KT 20SM SCT029 BKN250 13/07 A3000
cycle: 19

Station Type Date Time Source
KMWA TAF UTC NOAA

Error!

Example: see airport list